createdAt,value
2018-06-25T00:01:17.736Z,1.97
2018-06-25T00:03:48.152Z,2.20
2018-06-25T00:06:18.843Z,2.20
2018-06-25T00:08:54.335Z,2.37
2018-06-25T00:11:42.553Z,2.30
2018-06-25T00:14:17.635Z,2.10
2018-06-25T00:16:48.251Z,2.20
2018-06-25T00:19:18.508Z,2.60
2018-06-25T00:21:49.657Z,2.63
2018-06-25T00:24:26.478Z,2.20
2018-06-25T00:27:00.298Z,2.67
2018-06-25T00:29:30.817Z,2.90
2018-06-25T00:32:01.374Z,2.30
2018-06-25T00:34:59.978Z,2.20
2018-06-25T00:37:32.052Z,2.17
2018-06-25T00:40:02.408Z,2.13
2018-06-25T00:42:33.181Z,2.27
2018-06-25T00:45:04.147Z,2.57
2018-06-25T00:47:34.677Z,2.50
2018-06-25T00:50:05.455Z,2.40
2018-06-25T00:52:36.365Z,2.30
2018-06-25T00:57:54.995Z,2.63
2018-06-25T01:00:25.448Z,2.67
2018-06-25T01:02:57.677Z,2.80
2018-06-25T01:05:28.160Z,2.00
2018-06-25T01:07:58.555Z,2.43
2018-06-25T01:10:28.990Z,1.87
2018-06-25T01:12:59.710Z,2.00
2018-06-25T01:18:36.215Z,2.37
2018-06-25T01:21:06.628Z,2.40
2018-06-25T01:23:41.217Z,2.47
2018-06-25T01:26:11.715Z,2.50
2018-06-25T01:28:42.097Z,2.27
2018-06-25T01:31:14.248Z,2.27
2018-06-25T01:38:07.783Z,2.60
2018-06-25T01:40:40.453Z,2.40
2018-06-25T01:43:11.371Z,2.57
2018-06-25T01:45:41.980Z,2.40
2018-06-25T01:48:12.748Z,2.90
2018-06-25T01:50:43.238Z,2.40
2018-06-25T01:53:15.110Z,2.40
2018-06-25T01:55:45.615Z,2.47
2018-06-25T01:58:16.099Z,2.43
2018-06-25T02:00:48.965Z,2.20
2018-06-25T02:03:21.128Z,2.50
2018-06-25T02:05:51.635Z,2.20
2018-06-25T02:08:22.933Z,2.43
2018-06-25T02:10:55.528Z,2.70
2018-06-25T02:13:26.356Z,2.47
2018-06-25T02:15:57.124Z,2.33
2018-06-25T02:18:27.748Z,2.27
2018-06-25T02:20:58.155Z,2.20
2018-06-25T02:23:46.086Z,2.47
2018-06-25T02:26:40.643Z,2.20
2018-06-25T02:29:11.478Z,2.07
2018-06-25T02:31:41.777Z,2.13
2018-06-25T02:34:13.094Z,2.60
2018-06-25T02:37:00.721Z,2.20
2018-06-25T02:43:08.536Z,2.43
2018-06-25T02:45:45.341Z,2.50
2018-06-25T02:48:15.620Z,2.20
2018-06-25T02:50:46.738Z,2.37
2018-06-25T02:53:25.191Z,2.50
2018-06-25T02:55:56.161Z,2.40
2018-06-25T02:58:26.508Z,2.50
2018-06-25T03:01:00.194Z,2.43
2018-06-25T03:03:30.551Z,2.20
2018-06-25T03:06:01.172Z,2.50
2018-06-25T03:08:31.523Z,2.40
2018-06-25T03:11:02.835Z,2.40
2018-06-25T03:13:33.044Z,2.30
2018-06-25T03:16:03.473Z,2.57
2018-06-25T03:18:33.778Z,2.50
2018-06-25T03:21:07.288Z,2.53
2018-06-25T03:23:37.531Z,2.60
2018-06-25T03:26:08.315Z,2.53
2018-06-25T03:28:47.586Z,2.40
2018-06-25T03:31:18.615Z,2.43
2018-06-25T03:33:49.368Z,2.60
2018-06-25T03:36:20.495Z,2.80
2018-06-25T03:38:50.862Z,2.73
2018-06-25T03:41:21.814Z,2.20
2018-06-25T03:43:52.074Z,2.43
2018-06-25T03:46:22.981Z,2.60
2018-06-25T03:48:53.382Z,2.50
2018-06-25T03:51:28.030Z,2.60
2018-06-25T03:53:58.507Z,2.50
2018-06-25T03:56:29.396Z,2.70
2018-06-25T03:59:00.009Z,2.30
2018-06-25T04:01:30.351Z,2.53
2018-06-25T04:04:02.386Z,2.47
2018-06-25T04:06:32.736Z,2.20
2018-06-25T04:09:03.861Z,2.40
2018-06-25T04:11:34.851Z,2.43
2018-06-25T04:14:05.558Z,2.23
2018-06-25T04:16:36.451Z,2.30
2018-06-25T04:19:06.918Z,2.40
2018-06-25T04:21:38.319Z,2.30
2018-06-25T04:24:13.908Z,2.23
2018-06-25T04:26:44.753Z,2.30
2018-06-25T04:29:20.003Z,2.30
2018-06-25T04:31:52.051Z,2.47
2018-06-25T04:34:22.928Z,2.43
2018-06-25T04:36:53.623Z,2.20
2018-06-25T04:39:24.498Z,2.50
2018-06-25T04:41:56.109Z,2.40
2018-06-25T04:44:26.868Z,2.60
2018-06-25T04:46:57.441Z,2.60
2018-06-25T04:49:28.046Z,2.40
2018-06-25T04:51:58.893Z,2.40
2018-06-25T04:54:32.498Z,2.80
2018-06-25T04:57:17.218Z,2.63
2018-06-25T04:59:49.510Z,2.90
2018-06-25T05:02:22.234Z,2.60
2018-06-25T05:04:54.710Z,2.30
2018-06-25T05:07:26.109Z,2.10
2018-06-25T05:09:56.473Z,2.57
2018-06-25T05:12:26.803Z,2.57
2018-06-25T05:14:57.363Z,2.20
2018-06-25T05:23:32.505Z,2.10
2018-06-25T05:29:06.931Z,2.30
2018-06-25T05:31:39.350Z,2.17
2018-06-25T05:34:09.753Z,2.10
2018-06-25T05:36:41.141Z,2.33
2018-06-25T05:39:14.315Z,2.40
2018-06-25T05:41:44.670Z,2.20
2018-06-25T05:44:14.980Z,2.83
2018-06-25T05:46:45.468Z,2.17
2018-06-25T05:49:15.665Z,2.80
2018-06-25T05:51:46.115Z,2.90
2018-06-25T05:54:16.630Z,2.53
2018-06-25T05:56:47.038Z,2.80
2018-06-25T05:59:18.111Z,2.93
2018-06-25T06:01:48.650Z,2.50
2018-06-25T06:04:18.930Z,2.30
2018-06-25T06:06:50.498Z,2.37
2018-06-25T06:09:20.933Z,2.60
2018-06-25T06:11:54.913Z,2.93
2018-06-25T06:14:26.298Z,2.70
2018-06-25T06:16:56.650Z,2.53
2018-06-25T06:19:26.938Z,2.60
2018-06-25T06:21:57.335Z,2.90
2018-06-25T06:24:28.281Z,2.70
2018-06-25T06:26:58.856Z,2.70
2018-06-25T06:29:29.088Z,2.67
2018-06-25T06:32:00.152Z,2.70
2018-06-25T06:34:30.433Z,2.47
2018-06-25T06:37:00.924Z,2.53
2018-06-25T06:39:31.117Z,2.23
2018-06-25T06:42:01.350Z,2.60
2018-06-25T06:44:31.587Z,2.60
2018-06-25T06:47:01.854Z,2.33
2018-06-25T06:49:34.106Z,2.40
2018-06-25T06:52:04.251Z,2.13
2018-06-25T06:54:34.838Z,2.10
2018-06-25T06:57:05.653Z,1.80
2018-06-25T06:59:36.154Z,2.23
2018-06-25T07:02:06.776Z,2.20
2018-06-25T07:04:37.369Z,2.20
2018-06-25T07:07:08.714Z,2.20
2018-06-25T07:09:39.156Z,2.33
2018-06-25T07:12:09.583Z,3.20
2018-06-25T07:14:39.793Z,3.50
2018-06-25T07:17:10.306Z,3.90
2018-06-25T07:19:40.710Z,2.73
2018-06-25T07:22:11.786Z,2.63
2018-06-25T07:24:42.062Z,2.80
2018-06-25T07:27:12.501Z,2.77
2018-06-25T07:29:42.768Z,2.60
2018-06-25T07:32:12.979Z,2.50
2018-06-25T07:34:43.305Z,2.40
2018-06-25T07:37:13.486Z,2.40
2018-06-25T07:39:43.756Z,2.10
2018-06-25T07:42:14.261Z,2.40
2018-06-25T07:44:44.551Z,2.00
2018-06-25T07:47:14.974Z,2.20
2018-06-25T07:49:45.247Z,1.80
2018-06-25T07:52:15.569Z,2.40
2018-06-25T07:57:43.904Z,1.70
2018-06-25T08:00:22.300Z,1.90
2018-06-25T08:03:04.644Z,1.70
2018-06-25T08:05:34.890Z,1.87
2018-06-25T08:08:05.361Z,1.50
2018-06-25T08:10:35.769Z,1.77
2018-06-25T08:13:06.056Z,1.80
2018-06-25T08:20:10.051Z,1.80
2018-06-25T08:22:46.196Z,1.70
2018-06-25T08:25:22.856Z,1.90
2018-06-25T08:27:54.768Z,1.87
2018-06-25T08:30:29.047Z,2.00
2018-06-25T08:32:58.861Z,1.80
2018-06-25T08:35:37.262Z,2.27
2018-06-25T08:38:08.623Z,2.10
2018-06-25T08:40:38.808Z,1.50
2018-06-25T08:43:09.480Z,1.80
2018-06-25T08:45:41.163Z,1.90
2018-06-25T08:51:19.106Z,1.80
2018-06-25T08:53:49.431Z,1.70
2018-06-25T08:56:20.019Z,1.63
2018-06-25T08:58:50.526Z,1.60
2018-06-25T09:01:30.229Z,1.80
2018-06-25T09:04:01.143Z,1.60
2018-06-25T09:06:31.766Z,1.70
2018-06-25T09:09:02.281Z,1.87
2018-06-25T09:11:32.931Z,1.90
2018-06-25T09:14:03.704Z,1.40
2018-06-25T09:16:34.009Z,1.33
2018-06-25T09:19:06.126Z,1.60
2018-06-25T09:21:36.874Z,1.60
2018-06-25T09:24:07.412Z,1.30
2018-06-25T09:26:40.130Z,1.30
2018-06-25T09:29:11.624Z,1.50
2018-06-25T09:31:42.936Z,1.63
2018-06-25T09:34:18.445Z,1.60
2018-06-25T09:36:48.823Z,1.10
2018-06-25T09:39:19.211Z,1.17
2018-06-25T09:41:49.573Z,1.47
2018-06-25T09:44:19.866Z,1.50
2018-06-25T09:46:50.641Z,1.50
2018-06-25T09:49:21.401Z,1.70
2018-06-25T09:51:52.030Z,1.30
2018-06-25T09:54:22.599Z,1.23
2018-06-25T09:56:53.314Z,1.10
2018-06-25T09:59:23.764Z,1.40
2018-06-25T10:01:54.730Z,1.40
2018-06-25T10:04:25.097Z,1.30
2018-06-25T10:06:55.554Z,1.10
2018-06-25T10:09:25.939Z,1.27
2018-06-25T10:11:56.621Z,1.37
2018-06-25T10:14:26.841Z,1.20
2018-06-25T10:16:57.181Z,1.20
2018-06-25T10:19:27.398Z,1.80
2018-06-25T10:21:57.704Z,1.17
2018-06-25T10:24:27.951Z,1.40
2018-06-25T10:26:58.375Z,1.47
2018-06-25T10:29:29.731Z,1.47
2018-06-25T10:32:00.364Z,1.13
2018-06-25T10:34:30.969Z,1.50
2018-06-25T10:37:01.420Z,1.20
2018-06-25T10:39:31.716Z,1.40
2018-06-25T10:42:02.031Z,1.60
2018-06-25T10:44:32.487Z,1.67
2018-06-25T10:47:02.809Z,1.30
2018-06-25T10:49:33.412Z,1.60
2018-06-25T10:52:04.624Z,1.53
2018-06-25T10:54:35.194Z,1.33
2018-06-25T10:57:05.627Z,1.50
2018-06-25T10:59:36.611Z,1.70
2018-06-25T11:02:07.823Z,1.70
2018-06-25T11:04:39.013Z,1.73
2018-06-25T11:07:09.487Z,1.80
2018-06-25T11:09:39.723Z,2.23
2018-06-25T11:12:09.943Z,2.00
2018-06-25T11:14:40.927Z,2.00
2018-06-25T11:17:11.304Z,2.10
2018-06-25T11:19:41.987Z,1.90
2018-06-25T11:22:12.681Z,1.83
2018-06-25T11:24:43.752Z,1.50
2018-06-25T11:27:14.926Z,1.50
2018-06-25T11:29:45.541Z,1.50
2018-06-25T11:32:15.789Z,1.40
2018-06-25T11:34:47.100Z,1.50
2018-06-25T11:37:18.301Z,1.30
2018-06-25T11:39:48.606Z,1.10
2018-06-25T11:42:20.157Z,1.20
2018-06-25T11:44:51.219Z,1.30
2018-06-25T11:47:21.924Z,1.30
2018-06-25T11:49:53.242Z,1.20
2018-06-25T11:52:23.986Z,0.93
2018-06-25T11:54:54.785Z,1.20
2018-06-25T11:57:25.099Z,1.37
2018-06-25T11:59:55.660Z,1.00
2018-06-25T12:02:26.261Z,1.00
2018-06-25T12:04:56.753Z,1.07
2018-06-25T12:07:27.352Z,1.20
2018-06-25T12:09:59.083Z,1.20
2018-06-25T12:12:29.892Z,1.20
2018-06-25T12:15:00.517Z,1.00
2018-06-25T12:17:31.059Z,1.10
2018-06-25T12:20:02.021Z,1.13
2018-06-25T12:22:33.036Z,1.30
2018-06-25T12:25:04.281Z,2.03
2018-06-25T12:27:35.039Z,1.13
2018-06-25T12:30:06.959Z,1.60
2018-06-25T12:32:38.667Z,1.40
2018-06-25T12:35:09.824Z,1.57
2018-06-25T12:37:41.044Z,1.70
2018-06-25T12:40:29.577Z,1.50
2018-06-25T12:43:00.002Z,1.73
2018-06-25T12:45:30.733Z,1.80
2018-06-25T12:48:02.438Z,1.70
2018-06-25T12:50:43.477Z,1.90
2018-06-25T12:53:14.221Z,1.47
2018-06-25T12:55:45.115Z,1.60
2018-06-25T12:58:16.126Z,1.50
2018-06-25T13:10:04.981Z,1.40
2018-06-25T13:12:35.509Z,1.63
2018-06-25T13:15:15.127Z,1.33
2018-06-25T13:17:50.971Z,1.70
2018-06-25T13:20:24.165Z,1.27
2018-06-25T13:22:57.350Z,1.70
2018-06-25T13:25:52.802Z,1.80
2018-06-25T13:28:25.697Z,2.13
2018-06-25T13:30:57.127Z,2.03
2018-06-25T13:33:28.023Z,2.90
2018-06-25T13:36:05.681Z,2.47
2018-06-25T13:38:36.470Z,2.03
2018-06-25T13:41:07.166Z,3.23
2018-06-25T13:43:37.999Z,2.77
2018-06-25T13:46:16.056Z,2.90
2018-06-25T13:48:46.446Z,3.37
2018-06-25T13:51:16.847Z,3.60
2018-06-25T13:53:47.199Z,4.27
2018-06-25T13:56:18.607Z,4.50
2018-06-25T13:58:49.836Z,4.30
2018-06-25T14:01:22.273Z,4.37
2018-06-25T14:03:52.461Z,4.10
2018-06-25T14:06:23.238Z,5.00
2018-06-25T14:09:00.928Z,4.60
2018-06-25T14:11:38.657Z,5.30
2018-06-25T14:14:10.039Z,4.53
2018-06-25T14:16:40.565Z,4.77
2018-06-25T14:19:11.032Z,6.20
2018-06-25T14:21:41.669Z,4.20
2018-06-25T14:24:17.268Z,7.77
2018-06-25T14:26:47.806Z,4.17
2018-06-25T14:29:23.280Z,4.50
2018-06-25T14:31:58.045Z,4.90
2018-06-25T14:34:29.994Z,3.57
2018-06-25T14:37:01.373Z,4.37
2018-06-25T14:39:31.809Z,5.37
2018-06-25T14:42:03.130Z,4.60
2018-06-25T14:44:33.468Z,4.50
2018-06-25T14:47:18.686Z,5.90
2018-06-25T14:49:49.381Z,5.20
2018-06-25T14:52:21.604Z,7.30
2018-06-25T14:54:51.869Z,5.90
2018-06-25T14:57:22.594Z,6.43
2018-06-25T14:59:54.597Z,5.80
2018-06-25T15:02:25.297Z,5.13
2018-06-25T15:05:24.834Z,4.03
2018-06-25T15:08:02.866Z,4.13
2018-06-25T15:10:33.395Z,4.70
2018-06-25T15:34:01.064Z,3.80
2018-06-25T15:36:32.161Z,5.37
2018-06-25T15:39:04.049Z,3.47
2018-06-25T15:41:34.593Z,4.17
2018-06-25T15:44:05.924Z,3.67
2018-06-25T15:46:36.606Z,3.30
2018-06-25T15:49:08.314Z,4.13
2018-06-25T15:51:38.644Z,3.20
2018-06-25T15:54:09.571Z,4.27
2018-06-25T15:56:40.038Z,4.90
2018-06-25T15:59:10.954Z,4.40
2018-06-25T16:01:41.474Z,4.40
2018-06-25T16:04:12.100Z,5.63
2018-06-25T16:06:42.757Z,5.00
2018-06-25T16:09:13.509Z,5.63
2018-06-25T16:11:44.777Z,4.70
2018-06-25T16:14:15.388Z,5.07
2018-06-25T16:16:45.877Z,3.50
2018-06-25T16:19:16.539Z,4.10
2018-06-25T16:21:47.006Z,3.57
2018-06-25T16:24:17.724Z,3.30
2018-06-25T16:26:48.161Z,3.30
2018-06-25T16:29:41.942Z,4.00
2018-06-25T16:32:13.514Z,3.40
2018-06-25T16:34:44.206Z,2.80
2018-06-25T16:37:14.586Z,2.87
2018-06-25T16:39:45.396Z,3.10
2018-06-25T16:42:17.337Z,3.37
2018-06-25T16:44:48.444Z,3.33
2018-06-25T16:47:19.109Z,3.57
2018-06-25T16:49:49.807Z,4.47
2018-06-25T16:52:20.494Z,3.83
2018-06-25T16:54:51.291Z,2.23
2018-06-25T16:57:21.843Z,3.10
2018-06-25T16:59:52.479Z,3.23
2018-06-25T17:02:22.990Z,3.00
2018-06-25T17:05:13.866Z,2.00
2018-06-25T17:07:49.069Z,2.53
2018-06-25T17:10:24.890Z,2.20
2018-06-25T17:12:56.455Z,1.90
2018-06-25T17:15:27.321Z,2.10
2018-06-25T17:17:58.054Z,2.10
2018-06-25T17:20:29.285Z,2.63
2018-06-25T17:22:59.954Z,2.40
2018-06-25T17:25:31.504Z,2.80
2018-06-25T17:28:02.431Z,3.00
2018-06-25T17:30:33.284Z,3.27
2018-06-25T17:33:03.725Z,3.70
2018-06-25T17:35:34.306Z,4.17
2018-06-25T17:38:04.812Z,4.00
2018-06-25T17:40:36.406Z,4.43
2018-06-25T17:43:07.028Z,4.10
2018-06-25T17:45:37.699Z,4.10
2018-06-25T17:48:38.454Z,4.00
2018-06-25T17:51:09.362Z,4.00
2018-06-25T17:53:39.717Z,3.50
2018-06-25T17:56:10.251Z,3.30
2018-06-25T17:58:40.577Z,4.10
2018-06-25T18:01:10.912Z,3.20
2018-06-25T18:03:41.489Z,3.50
2018-06-25T18:06:12.939Z,3.70
2018-06-25T18:08:43.739Z,3.03
2018-06-25T18:11:13.976Z,3.20
2018-06-25T18:13:47.465Z,4.00
2018-06-25T18:16:18.534Z,3.07
2018-06-25T18:18:49.974Z,3.20
2018-06-25T18:21:20.378Z,2.90
2018-06-25T18:23:50.893Z,2.67
2018-06-25T18:26:21.782Z,3.10
2018-06-25T18:28:55.053Z,2.63
2018-06-25T18:31:27.694Z,2.60
2018-06-25T18:33:58.320Z,2.50
2018-06-25T18:36:28.752Z,2.10
2018-06-25T18:38:59.363Z,2.07
2018-06-25T18:41:29.763Z,2.20
2018-06-25T18:44:00.203Z,1.97
2018-06-25T18:46:30.464Z,2.20
2018-06-25T18:49:00.743Z,2.00
2018-06-25T18:51:31.470Z,1.73
2018-06-25T18:54:02.091Z,1.83
2018-06-25T18:56:33.150Z,1.80
2018-06-25T18:59:04.028Z,1.90
2018-06-25T19:01:35.571Z,1.97
2018-06-25T19:04:06.216Z,1.70
2018-06-25T19:06:38.162Z,1.80
2018-06-25T19:09:10.949Z,1.60
2018-06-25T19:11:41.654Z,1.80
2018-06-25T19:14:12.046Z,1.67
2018-06-25T19:16:43.021Z,1.57
2018-06-25T19:19:13.514Z,1.80
2018-06-25T19:21:44.919Z,1.83
2018-06-25T19:24:15.243Z,1.80
2018-06-25T19:26:46.244Z,1.80
2018-06-25T19:29:17.052Z,1.87
2018-06-25T19:31:48.216Z,2.17
2018-06-25T19:34:29.854Z,1.80
2018-06-25T19:37:01.259Z,1.77
2018-06-25T19:39:31.935Z,1.90
2018-06-25T19:42:03.201Z,1.60
2018-06-25T19:44:34.174Z,1.87
2018-06-25T19:47:04.843Z,2.00
2018-06-25T19:49:36.614Z,1.70
2018-06-25T19:52:07.544Z,1.80
2018-06-25T19:54:38.971Z,1.77
2018-06-25T19:57:10.068Z,1.40
2018-06-25T19:59:40.681Z,1.90
2018-06-25T20:02:11.713Z,1.77
2018-06-25T20:04:42.536Z,2.10
2018-06-25T20:07:13.556Z,1.87
2018-06-25T20:09:44.166Z,1.97
2018-06-25T20:12:17.636Z,1.77
2018-06-25T20:14:48.534Z,1.90
2018-06-25T20:17:20.082Z,2.03
2018-06-25T20:19:50.768Z,1.90
2018-06-25T20:22:24.570Z,1.60
2018-06-25T20:24:57.156Z,1.83
2018-06-25T20:27:29.641Z,1.60
2018-06-25T20:30:00.224Z,1.60
2018-06-25T20:32:31.552Z,1.87
2018-06-25T20:35:02.369Z,1.80
2018-06-25T20:37:33.549Z,2.03
2018-06-25T20:40:16.104Z,1.97
2018-06-25T20:42:51.736Z,1.80
2018-06-25T20:45:25.851Z,1.83
2018-06-25T20:47:57.049Z,1.83
2018-06-25T20:50:27.432Z,1.80
2018-06-25T20:52:58.674Z,1.70
2018-06-25T20:55:29.795Z,2.33
2018-06-25T20:58:01.339Z,1.90
2018-06-25T21:00:33.622Z,2.10
2018-06-25T21:03:06.231Z,2.07
2018-06-25T21:05:36.846Z,2.27
2018-06-25T21:08:08.897Z,2.10
2018-06-25T21:10:40.867Z,2.47
2018-06-25T21:13:11.997Z,1.93
2018-06-25T21:15:44.595Z,2.10
2018-06-25T21:18:17.757Z,2.10
2018-06-25T21:20:49.126Z,1.90
2018-06-25T21:23:20.540Z,2.10
2018-06-25T21:25:51.121Z,2.03
2018-06-25T21:28:23.680Z,2.00
2018-06-25T21:33:55.420Z,1.97
2018-06-25T21:36:26.738Z,2.50
2018-06-25T21:38:58.738Z,2.10
2018-06-25T21:41:29.892Z,2.03
2018-06-25T21:44:00.836Z,2.20
2018-06-25T21:46:32.188Z,2.13
2018-06-25T21:49:03.568Z,2.37
2018-06-25T21:51:34.190Z,2.70
2018-06-25T21:54:05.344Z,2.23
2018-06-25T21:56:35.913Z,2.30
2018-06-25T21:59:07.426Z,2.30
2018-06-25T22:01:38.834Z,3.23
2018-06-25T22:04:09.866Z,2.53
2018-06-25T22:06:40.391Z,2.27
2018-06-25T22:09:10.890Z,2.60
2018-06-25T22:11:41.184Z,2.70
2018-06-25T22:14:11.674Z,2.50
2018-06-25T22:23:07.883Z,2.90
2018-06-25T22:25:38.982Z,2.50
2018-06-25T22:28:09.900Z,3.10
2018-06-25T22:30:42.104Z,2.67
2018-06-25T22:33:13.371Z,2.90
2018-06-25T22:36:03.281Z,2.60
2018-06-25T22:38:37.021Z,2.73
2018-06-25T22:41:08.047Z,3.00
2018-06-25T22:43:44.077Z,3.00
2018-06-25T22:46:19.758Z,2.87
2018-06-25T22:48:50.731Z,3.10
2018-06-25T22:51:21.840Z,3.27
2018-06-25T22:53:52.624Z,3.07
2018-06-25T22:56:23.696Z,3.40
2018-06-25T22:59:01.532Z,3.27
2018-06-25T23:01:33.439Z,3.33
2018-06-25T23:04:06.172Z,3.27
2018-06-25T23:06:37.360Z,3.40
2018-06-25T23:09:16.724Z,3.43
2018-06-25T23:11:47.558Z,3.13
2018-06-25T23:14:18.737Z,3.07
2018-06-25T23:22:26.426Z,3.10
2018-06-25T23:24:56.534Z,2.93
2018-06-25T23:27:26.537Z,3.10
2018-06-25T23:29:56.397Z,3.27
2018-06-25T23:32:26.413Z,3.00
2018-06-25T23:34:56.382Z,3.20
2018-06-25T23:37:47.261Z,3.53
2018-06-25T23:40:20.897Z,3.33
2018-06-25T23:42:51.107Z,3.40
2018-06-25T23:45:21.305Z,3.53
2018-06-25T23:47:51.457Z,3.20
2018-06-25T23:50:22.603Z,3.00
2018-06-25T23:52:53.059Z,3.40
2018-06-25T23:55:22.958Z,3.33
2018-06-25T23:57:53.156Z,3.43
